ADDS METAR Data INFO
IDs: Format: Raw Decoded Include TAF

Data at: 1554 UTC 12 Dec 2017

KDPL 121545Z AUTO 24012G16KT 10SM CLR 11/04 A2971 RMK AO2
KDPL 121525Z AUTO 25012G16KT 10SM CLR 11/04 A2972 RMK AO2
KDPL 121505Z AUTO 23007G17KT 10SM CLR 11/04 A2973 RMK AO2
KDPL 121445Z AUTO 23010G16KT 10SM CLR 10/04 A2974 RMK AO2
KDPL 121425Z AUTO 22008G15KT 10SM CLR 10/04 A2974 RMK AO2
KDPL 121405Z AUTO 22007KT 160V250 10SM CLR 09/04 A2975 RMK AO2
KDPL 121345Z AUTO 22006KT 10SM CLR 08/03 A2975 RMK AO2
KDPL 121325Z AUTO 20003KT 10SM CLR 07/03 A2976 RMK AO2
KDPL 121305Z AUTO 22004KT 10SM CLR 06/03 A2977 RMK AO2
KDPL 121245Z AUTO 21003KT 10SM CLR 05/02 A2977 RMK AO2
KDPL 121225Z AUTO 00000KT 10SM CLR 05/02 A2977 RMK AO2
KDPL 121205Z AUTO 00000KT 10SM CLR 03/02 A2978 RMK AO2
KDPL 121145Z AUTO 00000KT 10SM CLR 02/01 A2979 RMK AO2
KDPL 121125Z AUTO 00000KT 10SM CLR 02/01 A2980 RMK AO2
KDPL 121105Z AUTO 00000KT 10SM CLR 02/01 A2980 RMK AO2
KDPL 121045Z AUTO 00000KT 10SM CLR 02/01 A2980 RMK AO2
KDPL 121025Z AUTO 00000KT 10SM CLR 04/02 A2981 RMK AO2
KDPL 121005Z AUTO 00000KT 10SM CLR 03/01 A2981 RMK AO2
KDPL 120945Z AUTO 00000KT 10SM CLR 03/01 A2982 RMK AO2
KDPL 120925Z AUTO 00000KT 10SM CLR 04/02 A2983 RMK AO2
KDPL 120905Z AUTO 20003KT 10SM CLR 02/01 A2984 RMK AO2
KDPL 120845Z AUTO 00000KT 10SM CLR 03/01 A2985 RMK AO2
KDPL 120825Z AUTO 00000KT 10SM CLR 03/01 A2986 RMK AO2
KDPL 120805Z AUTO 00000KT 10SM CLR 04/01 A2987 RMK AO2
KDPL 120745Z AUTO 00000KT 10SM CLR 04/01 A2987 RMK AO2
KDPL 120725Z AUTO 17003KT 10SM CLR 01/00 A2988 RMK AO2
KDPL 120705Z AUTO 00000KT 10SM CLR 01/01 A2989 RMK AO2
KDPL 120645Z AUTO 17003KT 10SM CLR 00/M01 A2991 RMK AO2
KDPL 120625Z AUTO 00000KT 7SM CLR 00/M01 A2991 RMK AO2
KDPL 120605Z AUTO 00000KT 7SM BR CLR 00/M01 A2993 RMK AO2
KDPL 120545Z AUTO 00000KT 7SM CLR 00/00 A2995 RMK AO2
KDPL 120525Z AUTO 00000KT 10SM CLR 01/00 A2995 RMK AO2
KDPL 120505Z AUTO 00000KT 10SM CLR 01/00 A2995 RMK AO2
KDPL 120445Z AUTO 00000KT 10SM CLR 02/00 A2997 RMK AO2
KDPL 120425Z AUTO 00000KT 10SM CLR 03/00 A2998 RMK AO2
KDPL 120405Z AUTO 00000KT 10SM CLR 03/00 A2999 RMK AO2
KDPL 120345Z AUTO 00000KT 10SM CLR 03/00 A2999 RMK AO2
KDPL 120325Z AUTO 00000KT 10SM CLR 02/00 A2999 RMK AO2
KDPL 120305Z AUTO 00000KT 10SM CLR 02/00 A3000 RMK AO2
KDPL 120245Z AUTO 00000KT 10SM CLR 02/M01 A3001 RMK AO2
KDPL 120225Z AUTO 00000KT 10SM CLR 03/M01 A3001 RMK AO2
KDPL 120205Z AUTO 16003KT 10SM CLR 02/M01 A3002 RMK AO2
KDPL 120145Z AUTO 00000KT 10SM CLR 01/M01 A3003 RMK AO2
KDPL 120125Z AUTO 00000KT 10SM CLR 01/M01 A3004 RMK AO2
KDPL 120105Z AUTO 00000KT 10SM CLR 01/M01 A3004 RMK AO2
KDPL 120045Z AUTO 00000KT 10SM CLR 01/00 A3004 RMK AO2
KDPL 120025Z AUTO 00000KT 10SM CLR 01/M01 A3004 RMK AO2
KDPL 120005Z AUTO 00000KT 10SM CLR 01/M01 A3004 RMK AO2
KDPL 112345Z AUTO 00000KT 10SM CLR 02/00 A3004 RMK AO2
KDPL 112325Z AUTO 00000KT 10SM CLR 02/00 A3003 RMK AO2
KDPL 112305Z AUTO 00000KT 10SM CLR 03/01 A3003 RMK AO2
KDPL 112245Z AUTO 00000KT 10SM CLR 04/01 A3003 RMK AO2
KDPL 112225Z AUTO 00000KT 10SM CLR 05/01 A3003 RMK AO2
KDPL 112205Z AUTO 00000KT 10SM CLR 07/01 A3004 RMK AO2
KDPL 112145Z AUTO 00000KT 10SM CLR 09/M01 A3004 RMK AO2
KDPL 112125Z AUTO 00000KT 10SM CLR 10/M02 A3004 RMK AO2
KDPL 112105Z AUTO 00000KT 10SM CLR 11/M02 A3005 RMK AO2
KDPL 112045Z AUTO 24003KT 10SM CLR 12/M03 A3005 RMK AO2
KDPL 112025Z AUTO 24003KT 10SM CLR 12/M03 A3006 RMK AO2
KDPL 112005Z AUTO 17003KT 10SM CLR 12/M03 A3006 RMK AO2
KDPL 111945Z AUTO 00000KT 10SM CLR 12/M03 A3006 RMK AO2
KDPL 111925Z AUTO 24003KT 10SM CLR 12/M04 A3007 RMK AO2
KDPL 111905Z AUTO 16004KT 10SM CLR 12/M03 A3007 RMK AO2
KDPL 111845Z AUTO 25005KT 10SM CLR 12/M04 A3008 RMK AO2
KDPL 111825Z AUTO 00000KT 10SM CLR 12/M03 A3009 RMK AO2
KDPL 111805Z AUTO 00000KT 10SM CLR 11/M03 A3010 RMK AO2
KDPL 111745Z AUTO 00000KT 10SM CLR 11/M03 A3010 RMK AO2
KDPL 111725Z AUTO 25004KT 10SM CLR 11/M02 A3011 RMK AO2
KDPL 111705Z AUTO 00000KT 10SM CLR 11/M01 A3011 RMK AO2
KDPL 111645Z AUTO 00000KT 10SM CLR 09/M02 A3013 RMK AO2
KDPL 111625Z AUTO 23003KT 10SM CLR 09/M01 A3014 RMK AO2
KDPL 111605Z AUTO 26003KT 10SM CLR 08/00 A3015 RMK AO2
KDPL 111545Z AUTO 00000KT 10SM CLR 07/M01 A3017 RMK AO2
KDPL 111525Z AUTO 00000KT 10SM CLR 06/00 A3017 RMK AO2
KDPL 111505Z AUTO 24003KT 10SM CLR 05/M01 A3018 RMK AO2
KDPL 111445Z AUTO 24004KT 10SM CLR 04/M01 A3018 RMK AO2
KDPL 111425Z AUTO 29004KT 10SM CLR 03/M01 A3018 RMK AO2
KDPL 111405Z AUTO 22004KT 10SM CLR 02/M01 A3018 RMK AO2
KDPL 111345Z AUTO 23005KT 10SM CLR 01/M01 A3018 RMK AO2
KDPL 111325Z AUTO 23004KT 10SM CLR M01/M02 A3018 RMK AO2
KDPL 111305Z AUTO 00000KT 7SM CLR M03/M03 A3018 RMK AO2
KDPL 111245Z AUTO 00000KT 7SM CLR M04/M04 A3017 RMK AO2
KDPL 111225Z AUTO 00000KT 7SM CLR M04/M04 A3017 RMK AO2
KDPL 111205Z AUTO 00000KT 7SM CLR M04/M04 A3017 RMK AO2
KDPL 111145Z AUTO 00000KT 7SM CLR M04/M04 A3016 RMK AO2
KDPL 111125Z AUTO 00000KT 7SM CLR M04/M04 A3016 RMK AO2
KDPL 111105Z AUTO 00000KT 7SM CLR M04/M04 A3016 RMK AO2
KDPL 111045Z AUTO 00000KT 7SM BR CLR M04/M04 A3015 RMK AO2
KDPL 111020Z AUTO 00000KT 7SM CLR M04/M04 A3016 RMK AO2
KDPL 111005Z AUTO 00000KT 7SM CLR M04/M05 A3015 RMK AO2
KDPL 110945Z AUTO 00000KT 7SM BR CLR M04/M04 A3015 RMK AO2
KDPL 110925Z AUTO 00000KT 7SM CLR M04/M04 A3014 RMK AO2
KDPL 110905Z AUTO 00000KT 5SM BR CLR M03/M04 A3014 RMK AO2
KDPL 110845Z AUTO 00000KT 7SM BR CLR M03/M04 A3015 RMK AO2
KDPL 110825Z AUTO 00000KT 5SM BR CLR M03/M04 A3016 RMK AO2
KDPL 110805Z AUTO 00000KT 7SM BR CLR M03/M03 A3016 RMK AO2
KDPL 110745Z AUTO 00000KT 5SM BR CLR M03/M03 A3017 RMK AO2
KDPL 110725Z AUTO 00000KT 5SM BR CLR M03/M03 A3017 RMK AO2
KDPL 110705Z AUTO 00000KT 7SM CLR M02/M03 A3017 RMK AO2
KDPL 110645Z AUTO 00000KT 5SM BR CLR M03/M03 A3018 RMK AO2
KDPL 110625Z AUTO 00000KT 7SM CLR M02/M03 A3018 RMK AO2
KDPL 110605Z AUTO 00000KT 7SM CLR M02/M03 A3018 RMK AO2
KDPL 110545Z AUTO 00000KT 7SM BR CLR M02/M03 A3018 RMK AO2
KDPL 110525Z AUTO 00000KT 7SM BR CLR M02/M03 A3018 RMK AO2
KDPL 110505Z AUTO 00000KT 7SM CLR M02/M03 A3018 RMK AO2
KDPL 110445Z AUTO 00000KT 7SM BR CLR M02/M02 A3019 RMK AO2
KDPL 110425Z AUTO 00000KT 10SM CLR M02/M02 A3020 RMK AO2
KDPL 110405Z AUTO 00000KT 10SM CLR M02/M02 A3019 RMK AO2